• Join FlightAware (Why Join?)
  • Login
  • US Flag 
04:45PM EST


 

Airport Tracker/Info


-or-


 

Live Flight TrackerFlight Track Log ✈ N830QS ✈ 15-Aug-2013 ✈ O26 - KSFO

Flight Track Log - Related Links

Times and Time Zones

All times are in EDT time to prevent confusion due to time zone crossing. See the N830QS flight status page for this flight to view local times or setup timezone preferences in your user account.

Time Position Orientation Groundspeed Altitude Reporting Facility
EDT Latitude Longitude Course Direction KTS MPH feet Rate Location/Type
11:13AM 36.8708 -118.1181 341° North 237 273 17,800  Level Oakland Center
11:14AM 36.9414 -118.1392 347° North 247 284 17,800  Level Oakland Center
11:15AM 37.0189 -118.1636 346° North 270 311 17,800  Level Oakland Center
11:16AM 37.0942 -118.1892 345° North 277 319 17,800  Level Oakland Center
11:17AM 37.1600 -118.2239 337° Northwest 263 303 17,800  Level Oakland Center
11:18AM 37.1609 -118.2666 341° North  Level FlightAware Approximate
11:18AM 37.2250 -118.2678 332° Northwest 263 303 17,800  Level Oakland Center
11:19AM 37.2872 -118.3072 333° Northwest 257 296 17,600 -120 Descending Oakland Center
11:20AM 37.3650 -118.3589 332° Northwest 258 297 17,600  Level Oakland Center
11:21AM 37.4292 -118.3625 357° North 257 296 17,600 420 Level Oakland Center
11:22AM 37.4717 -118.3017 49° Northeast 240 276 18,500 1,260 Climbing Oakland Center
11:23AM 37.5128 -118.4206 294° West 280 322 20,900 1,620 Climbing Los Angeles Center
11:24AM 37.5114 -118.4856 268° West 307 353 21,800 660 Climbing Oakland Center
11:25AM 37.5178 -118.6056 274° West 338 389 22,000 60 Climbing Oakland Center
11:26AM 37.5600 -118.7064 298° West 357 411 22,000  Level Oakland Center
11:27AM 37.6489 -118.7575 336° Northwest 352 405 22,000  Level Oakland Center
11:28AM 37.6658 -118.8714 281° West 309 356 22,000  Level Oakland Center
11:29AM 37.6669 -118.9744 271° West 295 339 22,000  Level Oakland Center
11:30AM 37.6650 -119.1006 269° West 354 407 22,000  Level Oakland Center
11:31AM 37.6642 -119.2394 270° West 383 441 22,000  Level Oakland Center
11:32AM 37.6636 -119.3769 270° West 390 449 22,000  Level Oakland Center
11:33AM 37.6583 -119.5158 267° West 392 451 22,000  Level Oakland Center
11:34AM 37.6564 -119.6506 269° West 388 447 22,000  Level Oakland Center
11:35AM 37.6528 -119.7825 268° West 380 437 22,000  Level Oakland Center
11:36AM 37.6525 -119.9106 270° West 369 425 22,000  Level Oakland Center
11:37AM 37.6497 -120.0667 269° West 371 427 22,000  Level Oakland Center
11:38AM 37.6456 -120.1967 268° West 371 427 22,000  Level Oakland Center
11:39AM 37.6433 -120.3233 269° West 363 418 22,000 -300 Level Oakland Center
11:40AM 37.6397 -120.4517 268° West 365 420 21,400 -1,020 Descending Oakland Center
11:41AM 37.6369 -120.5761 268° West 357 411 20,000 -720 Descending Oakland Center
11:42AM 37.6342 -120.6969 268° West 348 400 20,000  Level Oakland Center
11:43AM 37.6294 -120.8239 267° West 357 411 20,000  Level Oakland Center
11:44AM 37.6261 -120.9478 268° West 354 407 20,000 -240 Level Oakland Center
11:45AM 37.6167 -121.0667 264° West 331 381 19,600 -1,140 Descending Northern Cal TRACON
11:46AM 37.6000 -121.1667 258° West 337 388 17,900 -1,800 Descending Northern Cal TRACON
11:47AM 37.5833 -121.2833 260° West 323 372 16,200 -1,740 Descending Northern Cal TRACON
11:48AM 37.5833 -121.3833 270° West 311 358 14,600 -1,620 Descending Northern Cal TRACON
11:49AM 37.5667 -121.4833 258° West 306 352 13,200 -1,560 Descending Northern Cal TRACON
11:50AM 37.5500 -121.5833 258° West 300 345 11,700 -1,140 Descending Northern Cal TRACON
11:51AM 37.5667 -121.6833 282° West 269 310 11,000 -840 Descending Northern Cal TRACON
11:52AM 37.6000 -121.7500 302° West 245 282 10,100 -540 Descending Northern Cal TRACON
11:53AM 37.6333 -121.8333 297° West 251 289 10,000 -60 Descending Northern Cal TRACON
11:54AM 37.6333 -121.9167 270° West 247 284 10,000 -420 Level Northern Cal TRACON
11:55AM 37.5667 -121.9333 191° South 253 291 9,200 -480 Descending Northern Cal TRACON
11:56AM 37.5500 -121.8667 107° East 218 251 9,100 -60 Descending Northern Cal TRACON
11:57AM 37.5000 -121.8167 142° Southeast 203 234 9,100 -540 Level Northern Cal TRACON
11:58AM 37.4667 -121.8167 180° South 216 249 8,100 -540 Descending Northern Cal TRACON
11:59AM 37.4667 -121.8833 270° West 208 239 8,100  Level Northern Cal TRACON
12:00PM 37.5333 -121.8667 11° North 220 253 8,100  Level Northern Cal TRACON
12:01PM 37.5667 -121.8500 22° Northeast 231 266 8,100  Level Northern Cal TRACON
12:02PM 37.5167 -121.8333 165° South 210 242 8,100  Level Northern Cal TRACON
12:03PM 37.4667 -121.8500 195° South 208 239 8,100 -60 Level Northern Cal TRACON
12:04PM 37.4500 -121.9167 253° West 208 239 8,000 -720 Descending Northern Cal TRACON
12:05PM 37.4500 -121.9833 270° West 212 244 6,800 -960 Descending Northern Cal TRACON
12:06PM 37.4833 -122.0500 302° West 194 223 6,100 -1,140 Descending Northern Cal TRACON
12:07PM 37.5000 -122.1167 288° West 216 249 4,600 -1,380 Descending Northern Cal TRACON
12:08PM 37.5322 -122.1708 307° West 205 236 3,400 -1,020 Descending Oakland Center
12:09PM 37.5481 -122.2103 297° West 149 171 2,600 -720 Descending Oakland Center
12:10PM 37.5628 -122.2433 299° West 123 142 2,000 -540 Descending Oakland Center
12:11PM 37.5764 -122.2747 299° West 110 127 1,500 -540 Descending Oakland Center
12:12PM 37.5903 -122.3086 297° West 108 124 1,000 -540 Descending Oakland Center
12:13PM 37.6042 -122.3414 298° West 107 123 400 -360 Descending Oakland Center
12:14PM 37.6186 -122.3731 300° West 107 123 300 -120 Descending Oakland Center